Bei Facebook empfehlenBei Twitter postenGoogle plusPinterest

Das Wetter im Erzgebirge am 12.08.2015

Wetter und Klima am 12.08.2015 Holzhau im Erzgebirge (630m ü.NN)
Letzte gemessene Temperatur und Uhrzeit der Messung23:45:00 Uhr17.50 °C
Temperatur (Maximum / Höchstwert) und Uhrzeit der Messung15:45:00 Uhr30.50 °C
Temperatur (Minimum / Tiefstwert) und Uhrzeit der Messung03:15:0015.30 °C
Errechneter Absolutwert der Temperaturschwankungen zwischen Tmin und Tmax des Tages15.20 K
Errechnete Tagesmitteltemperatur22.63438 °C
Gesamt - Niederschlag des Tages (in flüssiger Form)0.00 Liter / m²
Luftdruck (Maximum / Höchstwert) und Zeitpunkt der Messung22:15:00 Uhr1021.00 hPa
Luftdruck (Minimum / Tiefstwert) und Zeitpunkt der Messung00:45:00 Uhr1018.90 hPa
Errechneter Absolutwert der Luftdruckschwankungen des Tages2.10 hPa
Höchste gemessene Windgeschwindigkeit und Uhrzeit der Messung23:45:00 Uhr0.00 km/h
Errechnete Windhäufigkeit in Relation zu den Messwerten des Tages0.00000 %
Niedrigste Windkühle (Windchill) und Zeitpunkt der Messung03:15:00 Uhr15.30 °C
Taupunkt (Maximum / Höchstwert) und Uhrzeit der Messung12:00:00 Uhr19.40 °C
Taupunkt (Minimum / Tiefstwert) und Uhrzeit der Messung03:00:0012.80 °C
Anzahl der automatisch eingelesenen Messwerte 96

Detaillierte Wetter- und Klima- Messwerte für den 12.08.2015 in Holzhau im Erzgebirge (630m ü.NN)
ZeitTemperaturLuftdruckRel. LuftfeuchteWindWindrichtungWindchillTaupunktNiederschlag l/m²
23:45:0017.50 °C1020.90 hPa80.00 %14.00 °C 
23:30:0017.60 °C1020.70 hPa80.00 %14.10 °C 
23:15:0017.70 °C1020.60 hPa78.00 %13.80 °C 
23:00:0017.90 °C1020.70 hPa78.00 %14.00 °C 
22:45:0018.00 °C1020.60 hPa77.00 %13.90 °C 
22:30:0018.20 °C1020.70 hPa76.00 %13.90 °C 
22:15:0018.50 °C1021.00 hPa75.00 %14.00 °C 
22:00:0018.90 °C1020.90 hPa74.00 %14.20 °C 
21:45:0019.30 °C1021.00 hPa72.00 %14.10 °C 
21:30:0019.80 °C1020.90 hPa71.00 %14.40 °C 
21:15:0020.40 °C1020.60 hPa70.00 %14.70 °C 
21:00:0021.10 °C1020.30 hPa67.00 %14.70 °C 
20:45:0021.90 °C1020.20 hPa65.00 %15.00 °C 
20:30:0022.90 °C1020.10 hPa63.00 %15.50 °C 
20:15:0023.90 °C1020.10 hPa60.00 %15.70 °C 
20:00:0024.80 °C1020.10 hPa59.00 %16.20 °C 
19:45:0025.40 °C1020.30 hPa57.00 %16.30 °C 
19:30:0026.10 °C1020.10 hPa56.00 %16.60 °C 
19:15:0026.60 °C1020.10 hPa55.00 %16.80 °C 
19:00:0027.10 °C1020.10 hPa54.00 %17.00 °C 
18:45:0027.50 °C1020.00 hPa53.00 %17.10 °C 
18:30:0028.40 °C1020.10 hPa52.00 %17.60 °C 
18:15:0028.90 °C1020.00 hPa51.00 %17.70 °C 
18:00:0028.90 °C1019.90 hPa51.00 %17.70 °C 
17:45:0029.30 °C1020.00 hPa50.00 %17.80 °C 
17:30:0029.80 °C1020.20 hPa49.00 %17.90 °C 
17:15:0030.00 °C1020.00 hPa48.00 %17.80 °C 
17:00:0030.20 °C1020.20 hPa49.00 %18.30 °C 
16:45:0030.10 °C1020.10 hPa49.00 %18.20 °C 
16:30:0030.00 °C1020.10 hPa49.00 %18.10 °C 
16:15:0029.90 °C1020.20 hPa49.00 %18.00 °C 
16:00:0029.80 °C1019.90 hPa49.00 %17.90 °C 
15:45:0030.50 °C1020.10 hPa49.00 %18.60 °C 
15:30:0029.90 °C1020.10 hPa51.00 %18.70 °C 
15:15:0029.90 °C1020.00 hPa50.00 %18.30 °C 
15:00:0030.10 °C1020.30 hPa51.00 %18.80 °C 
14:45:0029.90 °C1020.20 hPa52.00 %19.00 °C 
14:30:0029.90 °C1020.40 hPa51.00 %18.70 °C 
14:15:0029.30 °C1020.50 hPa53.00 %18.70 °C 
14:00:0029.20 °C1020.60 hPa53.00 %18.60 °C 
13:45:0029.60 °C1020.60 hPa52.00 %18.70 °C 
13:30:0029.40 °C1020.50 hPa53.00 %18.80 °C 
13:15:0029.30 °C1020.40 hPa54.00 %19.00 °C 
13:00:0029.30 °C1020.40 hPa53.00 %18.70 °C 
12:45:0029.20 °C1020.50 hPa54.00 %18.90 °C 
12:30:0028.80 °C1020.60 hPa56.00 %19.10 °C 
12:15:0028.60 °C1020.40 hPa57.00 %19.20 °C 
12:00:0028.20 °C1020.40 hPa59.00 %19.40 °C 
11:45:0027.80 °C1020.40 hPa60.00 %19.30 °C 
11:30:0027.10 °C1020.40 hPa63.00 %19.40 °C 
11:15:0027.40 °C1020.30 hPa61.00 %19.20 °C 
11:00:0026.50 °C1020.20 hPa65.00 %19.40 °C 
10:45:0025.90 °C1020.30 hPa67.00 %19.30 °C 
10:30:0025.20 °C1020.30 hPa69.00 %19.10 °C 
10:15:0025.00 °C1020.20 hPa71.00 %19.40 °C 
10:00:0023.90 °C1020.30 hPa74.00 %19.00 °C 
09:45:0022.90 °C1020.20 hPa75.00 %18.20 °C 
09:30:0022.70 °C1020.30 hPa77.00 %18.50 °C 
09:15:0021.90 °C1020.30 hPa79.00 %18.10 °C 
09:00:0021.30 °C1020.20 hPa80.00 %17.70 °C 
08:45:0021.00 °C1020.00 hPa82.00 %17.80 °C 
08:30:0020.40 °C1019.80 hPa83.00 %17.40 °C 
08:15:0020.30 °C1019.90 hPa83.00 %17.30 °C 
08:00:0020.20 °C1019.70 hPa85.00 %17.60 °C 
07:45:0019.80 °C1019.60 hPa87.00 %17.60 °C 
07:30:0018.60 °C1019.60 hPa87.00 %16.40 °C 
07:15:0018.30 °C1019.60 hPa87.00 %16.10 °C 
07:00:0018.10 °C1019.70 hPa87.00 %15.90 °C 
06:45:0018.10 °C1019.50 hPa87.00 %15.90 °C 
06:30:0018.10 °C1019.40 hPa87.00 %15.90 °C 
06:15:0017.90 °C1019.20 hPa87.00 %15.70 °C 
06:00:0017.90 °C1019.30 hPa86.00 %15.50 °C 
05:45:0017.90 °C1019.20 hPa86.00 %15.50 °C 
05:30:0017.90 °C1019.20 hPa86.00 %15.50 °C 
05:15:0017.80 °C1019.20 hPa86.00 %15.40 °C 
05:00:0017.40 °C1019.10 hPa86.00 %15.00 °C 
04:45:0017.20 °C1019.00 hPa86.00 %14.80 °C 
04:30:0016.90 °C1019.00 hPa87.00 %14.70 °C 
04:15:0016.70 °C1019.00 hPa87.00 %14.50 °C 
04:00:0016.40 °C1019.00 hPa87.00 %14.20 °C 
03:45:0016.00 °C1019.00 hPa87.00 %13.80 °C 
03:30:0015.60 °C1019.00 hPa87.00 %13.40 °C 
03:15:0015.30 °C1019.10 hPa86.00 %13.00 °C 
03:00:0015.30 °C1019.10 hPa85.00 %12.80 °C 
02:45:0015.50 °C1019.10 hPa85.00 %13.00 °C 
02:30:0015.60 °C1019.00 hPa85.00 %13.10 °C 
02:15:0015.80 °C1019.00 hPa84.00 %13.10 °C 
02:00:0016.10 °C1019.00 hPa84.00 %13.40 °C 
01:45:0016.20 °C1019.10 hPa83.00 %13.30 °C 
01:30:0016.40 °C1019.10 hPa83.00 %13.50 °C 
01:15:0016.50 °C1019.20 hPa82.00 %13.40 °C 
01:00:0016.80 °C1019.00 hPa81.00 %13.50 °C 
00:45:0017.00 °C1018.90 hPa80.00 %13.50 °C 
00:30:0017.30 °C1019.00 hPa80.00 %13.80 °C 
00:15:0017.60 °C1019.10 hPa79.00 %13.90 °C 
00:00:0017.90 °C1019.00 hPa78.00 %14.00 °C 

Permanenter Link zu dieser Seite: Wetter im Erzgebirge am 12.08.2015
Performance-Info: Die Erstellung der Seite / Statistik(en) / Tabelle(n) erforderte 5 Datenbankserver-Abfrage(n) und dauerte 124 Millisekunden. (Dieser Messwert ist von der Gesamt-Auslastung des Servers abhängig.)
Erzgebirge - Wetter | Erzgebirge - Wetter (Mobilgeräte) | Komplette Klimadatenbank